Time;durP1;ratioP1;P1;durP2;ratioP2;P2;SDS_P1;SDS_P2;PMS_P1;PMS_P2;Temp;Humidity;BMP_temperature;BMP_pressure;BME280_temperature;BME280_humidity;BME280_pressure;Samples;Min_cycle;Max_cycle;Signal;HPM_P1;HPM_P2
2023/11/27 00:00:57;;;;;;;;;13.50;8.75;;;;;7.16;58.72;100648.97;5092815;27;53208;-54
2023/11/27 00:03:22;;;;;;;;;7.25;4.50;;;;;7.15;58.90;100652.47;5098150;27;69403;-55
2023/11/27 00:05:47;;;;;;;;;18.50;9.00;;;;;7.15;59.02;100639.44;5093634;27;73192;-55
2023/11/27 00:08:13;;;;;;;;;11.00;10.00;;;;;7.16;59.12;100644.63;5079536;27;75105;-55
2023/11/27 00:10:38;;;;;;;;;10.00;8.50;;;;;7.18;59.06;100642.00;5088167;27;45441;-56
2023/11/27 00:13:03;;;;;;;;;9.25;7.50;;;;;7.18;59.28;100634.19;5089012;27;69412;-53
2023/11/27 00:15:29;;;;;;;;;11.25;10.00;;;;;7.18;59.34;100635.06;5091401;27;71960;-53
2023/11/27 00:17:54;;;;;;;;;10.00;9.00;;;;;7.18;59.09;100632.44;5081883;27;74284;-57
2023/11/27 00:20:19;;;;;;;;;14.50;9.50;;;;;7.17;59.27;100622.94;5093761;27;45729;-56
2023/11/27 00:22:45;;;;;;;;;10.50;10.00;;;;;7.16;59.23;100626.41;5091019;27;69341;-57
2023/11/27 00:25:10;;;;;;;;;14.50;11.25;;;;;7.15;59.33;100619.50;5099887;27;45530;-54
2023/11/27 00:27:35;;;;;;;;;11.00;9.00;;;;;7.17;59.32;100620.34;5080783;27;74459;-57
2023/11/27 00:30:01;;;;;;;;;9.50;8.00;;;;;7.17;59.49;100609.94;5095218;27;45332;-57
2023/11/27 00:32:26;;;;;;;;;14.00;9.00;;;;;7.21;59.43;100613.34;5090791;27;68141;-53
2023/11/27 00:34:51;;;;;;;;;8.00;7.75;;;;;7.21;59.57;100610.75;5092235;27;70446;-56
2023/11/27 00:37:18;;;;;;;;;10.50;8.50;;;;;7.21;59.40;100603.78;5094380;27;51236;-55
2023/11/27 00:39:43;;;;;;;;;11.00;6.50;;;;;7.21;59.59;100602.94;5093420;27;45649;-54
2023/11/27 00:42:09;;;;;;;;;12.75;10.00;;;;;7.21;59.38;100598.56;5096914;27;45744;-56
2023/11/27 00:44:34;;;;;;;;;13.00;8.50;;;;;7.22;59.54;100599.44;5098725;27;45645;-55
2023/11/27 00:47:00;;;;;;;;;14.25;9.00;;;;;7.22;59.32;100595.09;5077154;27;65083;-55
2023/11/27 00:49:25;;;;;;;;;11.00;8.00;;;;;7.23;59.43;100589.00;5099976;27;45229;-55
2023/11/27 00:51:50;;;;;;;;;11.75;9.00;;;;;7.22;59.42;100584.69;5076899;27;68683;-52
2023/11/27 00:54:15;;;;;;;;;11.75;8.25;;;;;7.25;59.58;100582.94;5094518;27;45508;-56
2023/11/27 00:56:41;;;;;;;;;12.00;7.75;;;;;7.26;59.41;100575.09;5093656;27;75716;-54
2023/11/27 00:59:07;;;;;;;;;9.25;8.75;;;;;7.29;59.50;100580.22;5086819;27;66939;-54
2023/11/27 01:01:33;;;;;;;;;12.50;9.50;;;;;7.30;59.24;100563.75;5075123;27;45469;-55
2023/11/27 01:03:58;;;;;;;;;10.25;8.25;;;;;7.30;59.22;100555.09;5082420;27;45675;-53
2023/11/27 01:06:23;;;;;;;;;14.00;8.00;;;;;7.33;59.36;100557.59;5076820;27;45322;-56
2023/11/27 01:08:49;;;;;;;;;6.00;6.00;;;;;7.37;59.36;100548.88;5099741;27;70900;-54
2023/11/27 01:11:14;;;;;;;;;8.75;7.00;;;;;7.39;59.14;100545.34;5096176;27;45229;-54
2023/11/27 01:13:39;;;;;;;;;14.50;8.00;;;;;7.40;59.07;100541.00;5099347;27;45238;-56
2023/11/27 01:16:05;;;;;;;;;12.75;8.75;;;;;7.40;59.06;100538.41;5094556;27;46737;-56
2023/11/27 01:18:31;;;;;;;;;10.00;7.00;;;;;7.41;59.19;100535.78;5079146;27;45338;-56
2023/11/27 01:20:56;;;;;;;;;10.75;8.00;;;;;7.44;59.17;100529.66;5094990;27;45465;-53
2023/11/27 01:23:22;;;;;;;;;8.75;7.00;;;;;7.44;59.22;100516.66;5095243;27;52271;-54
2023/11/27 01:25:47;;;;;;;;;14.25;9.50;;;;;7.45;59.25;100513.16;5072179;27;74142;-55
2023/11/27 01:28:13;;;;;;;;;7.25;7.00;;;;;7.43;59.27;100511.47;5096347;27;45406;-56
2023/11/27 01:30:38;;;;;;;;;11.75;7.75;;;;;7.44;59.29;100515.78;5092078;27;45536;-55
2023/11/27 01:33:07;;;;;;;;;14.00;7.00;;;;;7.41;59.31;100503.69;5098009;27;45351;-52
2023/11/27 01:35:32;;;;;;;;;8.75;4.50;;;;;7.40;59.38;100501.94;5094794;27;45338;-58
2023/11/27 01:37:58;;;;;;;;;10.25;7.25;;;;;7.39;59.38;100492.44;5076822;27;60264;-52
2023/11/27 01:40:23;;;;;;;;;9.50;7.50;;;;;7.39;59.41;100487.22;5094165;27;45400;-55
2023/11/27 01:42:48;;;;;;;;;7.50;7.00;;;;;7.43;59.56;100490.66;5090119;27;61596;-56
2023/11/27 01:45:14;;;;;;;;;9.50;6.00;;;;;7.44;59.34;100488.00;5089961;27;46322;-55
2023/11/27 01:47:39;;;;;;;;;7.50;4.50;;;;;7.44;59.54;100489.75;5091185;27;45379;-56
2023/11/27 01:50:06;;;;;;;;;9.50;7.50;;;;;7.44;59.19;100487.13;5094276;27;45494;-55
2023/11/27 01:52:33;;;;;;;;;14.00;7.25;;;;;7.41;59.03;100488.91;5069619;27;45430;-55
2023/11/27 01:54:58;;;;;;;;;8.50;8.25;;;;;7.42;59.15;100489.78;5073752;27;45529;-55
2023/11/27 01:57:24;;;;;;;;;9.00;7.75;;;;;7.43;59.00;100488.03;5067823;27;73467;-55
2023/11/27 01:59:51;;;;;;;;;10.50;5.50;;;;;7.44;58.92;100479.31;5073087;27;68249;-56
2023/11/27 02:02:17;;;;;;;;;7.25;5.00;;;;;7.46;59.02;100472.38;5068144;27;45666;-55
2023/11/27 02:04:42;;;;;;;;;7.25;5.00;;;;;7.46;58.81;100472.38;5096178;27;64136;-61
2023/11/27 02:07:08;;;;;;;;;9.00;5.00;;;;;7.45;58.79;100457.63;5099471;27;45351;-56
2023/11/27 02:09:33;;;;;;;;;4.00;4.00;;;;;7.47;58.80;100453.25;5072528;27;57003;-55
2023/11/27 02:11:59;;;;;;;;;6.75;4.00;;;;;7.48;58.78;100452.38;5080879;27;48366;-55
2023/11/27 02:14:24;;;;;;;;;8.00;5.50;;;;;7.50;58.75;100453.19;5096497;27;46370;-58
2023/11/27 02:16:49;;;;;;;;;4.75;4.25;;;;;7.51;58.65;100453.16;5064895;28;45422;-54
2023/11/27 02:19:15;;;;;;;;;7.25;4.00;;;;;7.53;58.50;100451.38;5088799;27;65984;-56
2023/11/27 02:21:41;;;;;;;;;9.75;5.00;;;;;7.52;58.49;100447.06;5095683;27;68333;-56
2023/11/27 02:24:07;;;;;;;;;7.50;7.00;;;;;7.53;58.73;100442.72;5092438;27;46484;-55
2023/11/27 02:26:32;;;;;;;;;12.50;7.25;;;;;7.51;58.88;100427.13;5089687;27;45391;-55
2023/11/27 02:28:57;;;;;;;;;4.00;4.00;;;;;7.53;59.07;100427.09;5098890;27;66597;-56
2023/11/27 02:31:23;;;;;;;;;7.00;4.50;;;;;7.50;59.27;100421.94;5097296;27;45387;-56
2023/11/27 02:33:48;;;;;;;;;3.50;3.50;;;;;7.50;59.82;100424.56;5071562;27;73276;-55
2023/11/27 02:36:13;;;;;;;;;8.25;6.00;;;;;7.51;59.55;100423.69;5090647;27;72395;-56
2023/11/27 02:38:39;;;;;;;;;7.75;4.25;;;;;7.50;59.86;100417.59;5094735;27;45406;-54
2023/11/27 02:41:05;;;;;;;;;3.75;2.00;;;;;7.49;59.99;100413.28;5065677;27;48153;-53
2023/11/27 02:43:30;;;;;;;;;4.00;4.00;;;;;7.46;60.17;100402.06;5090951;27;46901;-55
2023/11/27 02:45:56;;;;;;;;;7.00;4.25;;;;;7.45;60.47;100398.59;5075645;27;70523;-55
2023/11/27 02:48:21;;;;;;;;;6.00;3.25;;;;;7.45;60.59;100384.72;5095071;27;45498;-56
2023/11/27 02:50:47;;;;;;;;;8.25;5.00;;;;;7.46;60.55;100384.69;5089536;27;45532;-56
2023/11/27 02:53:13;;;;;;;;;8.75;5.00;;;;;7.45;60.93;100382.13;5081440;27;47075;-56
2023/11/27 02:55:38;;;;;;;;;11.00;4.25;;;;;7.44;60.95;100386.47;5091346;27;48734;-56
2023/11/27 02:58:04;;;;;;;;;7.00;4.00;;;;;7.44;60.95;100380.38;5096248;27;45406;-56
2023/11/27 03:00:29;;;;;;;;;4.25;3.75;;;;;7.43;60.94;100366.53;5094946;27;73040;-55
2023/11/27 03:02:54;;;;;;;;;4.75;4.75;;;;;7.39;61.12;100365.72;5086561;27;46080;-56
2023/11/27 03:05:20;;;;;;;;;8.00;6.50;;;;;7.41;61.15;100352.69;5100268;27;72907;-56
2023/11/27 03:07:45;;;;;;;;;2.25;2.25;;;;;7.40;61.20;100354.44;5077116;27;47080;-56
2023/11/27 03:10:12;;;;;;;;;5.00;3.25;;;;;7.40;61.20;100348.34;5100925;27;45315;-56
2023/11/27 03:12:38;;;;;;;;;4.50;4.50;;;;;7.41;61.29;100347.47;5090426;27;45474;-56
2023/11/27 03:15:05;;;;;;;;;8.75;3.75;;;;;7.40;61.23;100343.16;5098090;27;45403;-57
2023/11/27 03:17:31;;;;;;;;;10.50;4.50;;;;;7.40;61.14;100348.34;5096666;27;45442;-54
2023/11/27 03:19:56;;;;;;;;;7.25;5.00;;;;;7.40;61.22;100336.22;5099344;27;45658;-54
2023/11/27 03:22:23;;;;;;;;;5.75;3.75;;;;;7.40;61.16;100341.44;5082136;27;71678;-57
2023/11/27 03:24:48;;;;;;;;;8.75;4.50;;;;;7.41;61.21;100330.09;5095530;27;45428;-56
2023/11/27 03:27:14;;;;;;;;;6.75;5.00;;;;;7.43;61.37;100335.28;5098120;27;45449;-56
2023/11/27 03:29:40;;;;;;;;;9.00;7.75;;;;;7.46;61.28;100319.63;5087214;27;45418;-58
2023/11/27 03:32:05;;;;;;;;;9.00;4.00;;;;;7.45;61.14;100312.69;5099389;27;46086;-59
2023/11/27 03:34:31;;;;;;;;;9.50;4.50;;;;;7.47;61.17;100312.66;5093324;27;45272;-58
2023/11/27 03:36:56;;;;;;;;;3.50;3.00;;;;;7.48;60.99;100306.56;5091102;27;45359;-55
2023/11/27 03:39:22;;;;;;;;;8.00;4.75;;;;;7.48;61.03;100293.53;5093005;27;59932;-56
2023/11/27 03:41:50;;;;;;;;;4.00;3.75;;;;;7.48;61.08;100290.94;5089195;27;55657;-55
2023/11/27 03:44:15;;;;;;;;;8.00;4.00;;;;;7.49;61.01;100282.22;5090071;27;45871;-55
2023/11/27 03:46:41;;;;;;;;;10.00;5.25;;;;;7.48;61.32;100268.34;5094124;27;68320;-56
2023/11/27 03:49:06;;;;;;;;;11.50;7.00;;;;;7.47;61.47;100266.66;5094703;27;57281;-54
2023/11/27 03:51:32;;;;;;;;;5.00;1.50;;;;;7.47;61.43;100260.56;5097371;27;46114;-56
2023/11/27 03:53:57;;;;;;;;;4.50;4.50;;;;;7.44;61.49;100261.53;5092511;27;73321;-56
2023/11/27 03:56:22;;;;;;;;;10.00;4.00;;;;;7.43;61.49;100249.38;5082319;27;67233;-56
2023/11/27 03:58:48;;;;;;;;;8.50;5.00;;;;;7.43;61.81;100246.78;5079024;27;68009;-56
2023/11/27 04:01:16;;;;;;;;;4.75;4.00;;;;;7.42;61.90;100239.88;5092652;27;45607;-56
2023/11/27 04:03:42;;;;;;;;;4.75;4.25;;;;;7.40;61.97;100239.03;5095669;27;45548;-58
2023/11/27 04:06:08;;;;;;;;;5.00;4.25;;;;;7.38;62.28;100230.41;5101052;27;68295;-56
2023/11/27 04:08:39;;;;;;;;;6.50;5.00;;;;;7.36;62.18;100230.44;5100352;27;45591;-55
2023/11/27 04:11:09;;;;;;;;;4.25;4.25;;;;;7.34;62.35;100221.81;5072626;28;46139;-58
2023/11/27 04:13:35;;;;;;;;;5.75;4.00;;;;;7.33;62.35;100217.50;5077281;27;45405;-54
2023/11/27 04:16:00;;;;;;;;;7.25;3.25;;;;;7.32;62.32;100220.13;5097176;27;45233;-56
2023/11/27 04:18:26;;;;;;;;;5.00;4.00;;;;;7.30;62.30;100214.09;5092387;27;45331;-56
2023/11/27 04:20:51;;;;;;;;;7.25;5.00;;;;;7.26;62.50;100215.03;5097704;27;45777;-55
2023/11/27 04:23:17;;;;;;;;;4.00;4.00;;;;;7.25;62.59;100221.16;5088186;27;73159;-54
2023/11/27 04:25:42;;;;;;;;;6.00;5.00;;;;;7.21;62.61;100212.56;5094865;27;45237;-54
2023/11/27 04:28:07;;;;;;;;;8.00;3.75;;;;;7.18;62.77;100213.47;5095295;27;63473;-54
2023/11/27 04:30:33;;;;;;;;;3.25;3.25;;;;;7.15;63.60;100200.53;5075651;27;46006;-56
2023/11/27 04:32:58;;;;;;;;;8.75;4.50;;;;;7.14;63.54;100198.81;5095165;27;45212;-56
2023/11/27 04:35:24;;;;;;;;;8.00;5.25;;;;;7.15;63.54;100207.47;5098045;27;67586;-56
2023/11/27 04:37:49;;;;;;;;;9.25;6.00;;;;;7.11;63.54;100200.63;5092456;27;49696;-57
2023/11/27 04:40:15;;;;;;;;;7.25;4.00;;;;;7.10;63.84;100198.91;5087412;27;46222;-55
2023/11/27 04:42:40;;;;;;;;;4.50;4.50;;;;;7.07;64.02;100197.25;5092881;27;45363;-55
2023/11/27 04:45:09;;;;;;;;;4.00;3.25;;;;;7.02;64.15;100180.88;5095099;27;69165;-57
2023/11/27 04:47:35;;;;;;;;;8.00;4.00;;;;;6.97;64.49;100187.91;5078407;27;47155;-56
2023/11/27 04:50:01;;;;;;;;;7.25;3.50;;;;;6.92;64.52;100182.78;5098029;27;45295;-56
2023/11/27 04:52:26;;;;;;;;;4.25;4.25;;;;;6.88;65.38;100172.50;5091807;27;45388;-56
2023/11/27 04:54:51;;;;;;;;;8.75;7.00;;;;;6.82;66.10;100150.09;5089498;27;45623;-54
2023/11/27 04:57:18;;;;;;;;;8.00;5.75;;;;;6.81;66.56;100164.81;5088916;27;73082;-56
2023/11/27 04:59:44;;;;;;;;;8.25;6.00;;;;;6.80;66.47;100167.47;5089316;27;46892;-57
2023/11/27 05:02:10;;;;;;;;;7.00;5.00;;;;;6.73;66.73;100151.13;5091723;27;45748;-54
2023/11/27 05:04:35;;;;;;;;;7.75;5.25;;;;;6.69;68.21;100133.84;5088481;27;45304;-55
2023/11/27 05:07:01;;;;;;;;;5.00;4.50;;;;;6.67;67.48;100140.84;5095685;27;73247;-55
2023/11/27 05:09:27;;;;;;;;;5.50;4.00;;;;;6.63;67.98;100119.25;5092970;27;47313;-55
2023/11/27 05:11:52;;;;;;;;;7.00;5.75;;;;;6.60;67.96;100108.06;5087931;27;45269;-55
2023/11/27 05:14:17;;;;;;;;;12.25;7.00;;;;;6.58;68.10;100109.84;5088005;27;69424;-56
2023/11/27 05:16:43;;;;;;;;;8.75;5.50;;;;;6.60;68.32;100102.84;5094037;27;73231;-57
2023/11/27 05:19:08;;;;;;;;;6.25;6.25;;;;;6.59;68.36;100108.97;5090128;27;45996;-54
2023/11/27 05:21:33;;;;;;;;;5.50;3.75;;;;;6.58;68.54;100104.63;5096407;27;72174;-57
2023/11/27 05:23:59;;;;;;;;;9.50;7.50;;;;;6.59;68.52;100096.81;5088170;27;69045;-57
2023/11/27 05:26:24;;;;;;;;;6.75;4.00;;;;;6.59;68.48;100093.38;5071673;27;55891;-55
2023/11/27 05:28:49;;;;;;;;;2.75;2.00;;;;;6.58;68.28;100092.50;5091501;27;45390;-58
2023/11/27 05:31:15;;;;;;;;;7.00;4.00;;;;;6.59;68.52;100086.41;5098212;27;50500;-54
2023/11/27 05:33:40;;;;;;;;;8.25;7.00;;;;;6.60;68.81;100077.72;5095949;27;68277;-56
2023/11/27 05:36:09;;;;;;;;;7.50;7.00;;;;;6.60;68.78;100082.06;5089523;27;48871;-56
2023/11/27 05:38:35;;;;;;;;;9.50;7.00;;;;;6.56;68.97;100070.03;5098087;27;47405;-56
2023/11/27 05:41:01;;;;;;;;;7.75;7.50;;;;;6.60;68.93;100061.25;5069981;27;45414;-54
2023/11/27 05:43:27;;;;;;;;;6.50;4.00;;;;;6.62;68.87;100060.34;5098372;27;45341;-57
2023/11/27 05:45:52;;;;;;;;;6.00;6.00;;;;;6.63;68.98;100064.66;5095054;27;45467;-56
2023/11/27 05:48:18;;;;;;;;;7.50;4.25;;;;;6.62;69.27;100065.56;5102359;27;45291;-56
2023/11/27 05:50:44;;;;;;;;;8.00;6.75;;;;;6.62;69.51;100060.34;5092531;27;45447;-56
2023/11/27 05:53:12;;;;;;;;;5.00;4.25;;;;;6.65;69.55;100059.41;5094617;27;45431;-56
2023/11/27 05:55:37;;;;;;;;;9.00;7.00;;;;;6.66;70.10;100066.34;5097924;27;45512;-56
2023/11/27 05:58:03;;;;;;;;;9.00;7.00;;;;;6.65;70.00;100049.03;5093940;27;45965;-57
2023/11/27 06:00:32;;;;;;;;;9.75;7.00;;;;;6.65;69.76;100051.63;5093571;27;45291;-56
2023/11/27 06:02:58;;;;;;;;;11.50;7.00;;;;;6.66;70.16;100050.75;5072226;27;45671;-56
2023/11/27 06:05:23;;;;;;;;;7.25;6.75;;;;;6.69;70.50;100052.41;5095965;27;71942;-57
2023/11/27 06:07:49;;;;;;;;;8.25;7.00;;;;;6.70;70.63;100054.13;5098870;27;67570;-56
2023/11/27 06:10:16;;;;;;;;;8.25;7.75;;;;;6.69;70.83;100045.47;5098750;27;45730;-56
2023/11/27 06:12:41;;;;;;;;;8.00;6.75;;;;;6.71;73.57;100045.41;5091731;27;45308;-56
2023/11/27 06:15:07;;;;;;;;;8.50;6.75;;;;;6.71;71.58;100033.31;5096298;27;45681;-55
2023/11/27 06:17:32;;;;;;;;;9.50;6.50;;;;;6.72;71.16;100027.19;5098557;27;48342;-56
2023/11/27 06:19:57;;;;;;;;;11.75;7.00;;;;;6.72;71.35;100016.78;5095561;27;73137;-54
2023/11/27 06:22:23;;;;;;;;;9.50;7.00;;;;;6.73;71.72;100021.13;5094375;27;69400;-55
2023/11/27 06:24:49;;;;;;;;;9.00;8.00;;;;;6.74;71.91;100022.81;5092339;27;45498;-55
2023/11/27 06:27:15;;;;;;;;;9.75;9.00;;;;;6.77;71.85;100016.69;5087455;27;46378;-55
2023/11/27 06:29:40;;;;;;;;;7.75;7.00;;;;;6.75;71.88;100015.88;5098853;27;45561;-55
2023/11/27 06:32:05;;;;;;;;;7.75;7.25;;;;;6.79;72.18;100013.16;5097323;27;68038;-56
2023/11/27 06:34:31;;;;;;;;;7.00;5.50;;;;;6.81;71.83;100008.78;5091392;27;45548;-56
2023/11/27 06:36:56;;;;;;;;;4.75;4.25;;;;;6.80;71.93;99995.84;5097145;27;75199;-59
2023/11/27 06:39:22;;;;;;;;;10.25;6.75;;;;;6.82;71.93;99999.25;5090335;27;72214;-61
2023/11/27 06:41:47;;;;;;;;;7.50;6.00;;;;;6.83;72.00;99988.81;5072790;27;62063;-59
2023/11/27 06:44:17;;;;;;;;;8.75;6.75;;;;;6.86;72.49;99993.06;5093072;27;45546;-57
2023/11/27 06:46:43;;;;;;;;;10.50;8.00;;;;;6.87;72.40;99988.72;5096438;27;45291;-59
2023/11/27 06:49:09;;;;;;;;;8.00;7.50;;;;;6.87;72.06;99983.50;5092998;27;45489;-59
2023/11/27 06:51:35;;;;;;;;;43.00;28.75;;;;;6.90;72.35;99983.44;5092998;27;45282;-60
2023/11/27 06:54:01;;;;;;;;;23.00;18.25;;;;;6.90;72.33;99984.28;5095413;27;45454;-59
2023/11/27 06:56:30;;;;;;;;;11.50;9.50;;;;;6.93;72.62;99983.38;5091244;27;45301;-59
2023/11/27 06:58:59;;;;;;;;;11.00;8.00;;;;;6.95;72.62;99968.59;5098985;27;45387;-59
2023/11/27 07:01:28;;;;;;;;;9.75;7.00;;;;;6.95;72.91;99963.38;5096282;27;45445;-59
2023/11/27 07:03:53;;;;;;;;;6.50;5.25;;;;;6.95;72.65;99959.03;5098133;27;45584;-60
2023/11/27 07:06:19;;;;;;;;;10.00;5.25;;;;;6.96;72.53;99963.34;5087044;27;45562;-58
2023/11/27 07:08:44;;;;;;;;;8.50;7.00;;;;;6.97;72.77;99953.78;5093646;27;45463;-60
2023/11/27 07:11:09;;;;;;;;;8.00;7.00;;;;;6.97;77.89;99946.84;5094839;27;68448;-60
2023/11/27 07:13:35;;;;;;;;;6.75;6.75;;;;;6.98;74.16;99950.31;5075925;27;48928;-59
2023/11/27 07:16:00;;;;;;;;;5.75;4.75;;;;;6.97;74.09;99952.03;5096212;27;67522;-58
2023/11/27 07:18:25;;;;;;;;;5.50;5.25;;;;;6.97;73.78;99927.78;5067982;27;45336;-58
2023/11/27 07:20:51;;;;;;;;;8.00;5.25;;;;;6.96;73.68;99929.53;5095737;27;69408;-57
2023/11/27 07:23:16;;;;;;;;;11.25;7.00;;;;;6.96;73.47;99931.28;5090261;27;68325;-58
2023/11/27 07:25:41;;;;;;;;;8.75;7.00;;;;;6.97;73.33;99931.22;5085054;27;75685;-57
2023/11/27 07:28:07;;;;;;;;;6.75;5.25;;;;;6.97;73.28;99920.81;5078235;27;45747;-59
2023/11/27 07:30:32;;;;;;;;;6.00;4.00;;;;;6.97;73.30;99913.03;5096944;27;46106;-54
2023/11/27 07:32:58;;;;;;;;;6.00;4.25;;;;;6.98;73.35;99922.53;5099904;27;45231;-57
2023/11/27 07:35:24;;;;;;;;;8.00;5.00;;;;;6.99;73.18;99921.66;5078394;27;46102;-57
2023/11/27 07:37:50;;;;;;;;;8.25;6.25;;;;;7.01;73.22;99921.59;5091556;27;45172;-57
2023/11/27 07:40:15;;;;;;;;;5.50;5.00;;;;;7.00;73.17;99918.16;5095321;27;66591;-58
2023/11/27 07:42:41;;;;;;;;;8.25;6.00;;;;;7.02;73.17;99920.72;5095369;27;45505;-60
2023/11/27 07:45:07;;;;;;;;;7.00;5.00;;;;;7.04;73.26;99903.31;5075617;27;45517;-58
2023/11/27 07:47:33;;;;;;;;;4.75;4.00;;;;;7.06;73.23;99906.72;5090851;27;45319;-59
2023/11/27 07:49:59;;;;;;;;;7.75;6.75;;;;;7.08;73.16;99906.69;5059971;27;45350;-60
2023/11/27 07:52:24;;;;;;;;;7.25;5.25;;;;;7.06;73.38;99898.94;5098361;27;45388;-65
2023/11/27 07:54:50;;;;;;;;;3.75;3.75;;;;;7.09;73.34;99901.47;5098916;27;45418;-58
2023/11/27 07:57:15;;;;;;;;;6.75;5.25;;;;;7.10;73.31;99884.97;5096954;27;71550;-57
2023/11/27 07:59:41;;;;;;;;;6.50;4.75;;;;;7.13;73.32;99873.59;5095479;27;69313;-58
2023/11/27 08:02:07;;;;;;;;;7.25;5.00;;;;;7.14;73.13;99870.97;5082622;27;45315;-58
2023/11/27 08:04:33;;;;;;;;;3.50;3.50;;;;;7.14;73.13;99864.91;5094951;27;50321;-60
2023/11/27 08:06:59;;;;;;;;;4.75;4.75;;;;;7.15;73.15;99864.88;5080600;27;46047;-59
2023/11/27 08:09:24;;;;;;;;;4.25;3.00;;;;;7.19;73.13;99861.28;5095178;27;45292;-56
2023/11/27 08:11:50;;;;;;;;;14.50;8.75;;;;;7.19;73.08;99863.06;5094633;27;72131;-60
2023/11/27 08:14:17;;;;;;;;;8.25;7.75;;;;;7.19;73.32;99866.50;5073678;27;46250;-61
2023/11/27 08:16:44;;;;;;;;;9.25;8.00;;;;;7.19;73.08;99857.84;5087437;27;45479;-61
2023/11/27 08:19:13;;;;;;;;;6.75;4.75;;;;;7.19;72.98;99853.50;5093847;27;45512;-63
2023/11/27 08:21:39;;;;;;;;;6.25;3.50;;;;;7.22;73.01;99840.41;5054464;27;45535;-65
2023/11/27 08:24:05;;;;;;;;;6.25;4.00;;;;;7.26;73.03;99842.91;5098598;27;45298;-61
2023/11/27 08:26:39;;;;;;;;;6.00;4.00;;;;;7.29;72.95;99840.22;5070637;27;45464;-60
2023/11/27 08:29:08;;;;;;;;;3.50;3.00;;;;;7.30;73.00;99839.34;5101480;27;45512;-66
2023/11/27 08:31:34;;;;;;;;;6.75;3.25;;;;;7.30;73.09;99845.38;5092367;27;45465;-62
2023/11/27 08:33:59;;;;;;;;;5.25;3.00;;;;;7.29;73.26;99825.44;5092512;27;46420;-62
2023/11/27 08:36:25;;;;;;;;;4.00;4.00;;;;;7.33;73.24;99813.19;5093916;27;45516;-61
2023/11/27 08:38:52;;;;;;;;;3.50;2.00;;;;;7.34;73.20;99807.94;5101148;27;45311;-62
2023/11/27 08:41:18;;;;;;;;;3.00;3.00;;;;;7.35;73.16;99801.88;5070987;27;45517;-62
2023/11/27 08:43:43;;;;;;;;;5.25;5.00;;;;;7.36;73.14;99795.75;5097067;27;45382;-62
2023/11/27 08:46:09;;;;;;;;;3.00;3.00;;;;;7.38;73.72;99803.50;5097845;27;45281;-62
2023/11/27 08:48:34;;;;;;;;;4.00;4.00;;;;;7.36;73.44;99802.72;5081223;27;67740;-62
2023/11/27 08:50:59;;;;;;;;;4.00;4.00;;;;;7.37;73.54;99807.03;5094113;27;73173;-62
2023/11/27 08:53:27;;;;;;;;;4.00;2.50;;;;;7.36;73.65;99795.75;5072733;27;64756;-62
2023/11/27 08:55:55;;;;;;;;;7.25;4.25;;;;;7.36;73.49;99795.75;5080925;27;45446;-62
2023/11/27 08:58:20;;;;;;;;;4.25;3.75;;;;;7.33;75.83;99792.38;5091972;27;45356;-60
2023/11/27 09:00:45;;;;;;;;;3.75;2.50;;;;;7.32;74.26;99785.47;5063562;27;45410;-60
2023/11/27 09:03:11;;;;;;;;;5.25;4.25;;;;;7.31;74.29;99779.44;5095891;27;65268;-60
2023/11/27 09:05:37;;;;;;;;;7.50;4.00;;;;;7.32;74.25;99767.28;5101541;27;45616;-60
2023/11/27 09:08:05;;;;;;;;;4.75;4.75;;;;;7.34;74.24;99768.06;5085008;27;45518;-60
2023/11/27 09:10:32;;;;;;;;;6.00;5.00;;;;;7.36;74.36;99767.13;5059543;27;46012;-60
2023/11/27 09:12:57;;;;;;;;;4.75;4.75;;;;;7.43;74.13;99762.59;5085123;27;46427;-60
2023/11/27 09:15:22;;;;;;;;;9.25;5.25;;;;;7.42;74.44;99753.09;5092656;27;45576;-60
2023/11/27 09:17:48;;;;;;;;;7.00;7.00;;;;;7.46;74.39;99749.50;5083014;27;45437;-60
2023/11/27 09:20:15;;;;;;;;;7.00;5.25;;;;;7.47;74.30;99755.53;5100020;27;72950;-60
2023/11/27 09:22:40;;;;;;;;;7.50;7.50;;;;;7.47;74.07;99748.59;5099432;27;45381;-60
2023/11/27 09:25:09;;;;;;;;;5.50;4.00;;;;;7.47;74.38;99743.41;5092446;27;45428;-60
2023/11/27 09:27:37;;;;;;;;;7.50;5.25;;;;;7.49;74.28;99745.94;5086176;27;45224;-60
2023/11/27 09:30:09;;;;;;;;;3.25;2.25;;;;;7.50;74.39;99735.47;5103469;27;45406;-61
2023/11/27 09:32:36;;;;;;;;;11.75;8.00;;;;;7.50;74.39;99735.47;5099469;27;46073;-61
2023/11/27 09:35:06;;;;;;;;;8.25;5.25;;;;;7.51;74.36;99734.59;5065240;27;45464;-60
2023/11/27 09:37:32;;;;;;;;;8.75;6.25;;;;;7.53;74.49;99726.72;5091628;27;45281;-60
2023/11/27 09:40:03;;;;;;;;;8.75;5.00;;;;;7.55;74.69;99735.34;5097104;27;45229;-61
2023/11/27 09:42:35;;;;;;;;;7.50;7.50;;;;;7.56;74.47;99724.00;5081591;27;46363;-61
2023/11/27 09:45:05;;;;;;;;;7.50;7.50;;;;;7.57;74.49;99723.13;5086272;27;46065;-60
2023/11/27 09:47:31;;;;;;;;;10.00;7.75;;;;;7.58;74.46;99710.06;5073690;27;45396;-60
2023/11/27 09:49:58;;;;;;;;;11.50;8.00;;;;;7.60;74.54;99710.03;5098502;27;45462;-61
2023/11/27 09:52:30;;;;;;;;;8.25;4.75;;;;;7.63;74.50;99709.06;5090610;27;46268;-61
2023/11/27 09:55:01;;;;;;;;;7.50;5.00;;;;;7.62;74.43;99707.38;5093066;27;45781;-61
2023/11/27 09:57:27;;;;;;;;;8.50;7.50;;;;;7.63;74.60;99701.25;5079345;27;45358;-61
2023/11/27 09:59:52;;;;;;;;;7.75;7.75;;;;;7.63;74.83;99699.47;5093789;27;45429;-61
2023/11/27 10:02:18;;;;;;;;;8.50;7.00;;;;;7.62;74.75;99690.00;5083177;27;76725;-61
2023/11/27 10:04:43;;;;;;;;;8.75;5.00;;;;;7.63;74.79;99677.81;5075914;27;45539;-61
2023/11/27 10:07:08;;;;;;;;;8.50;7.00;;;;;7.66;74.96;99678.56;5091545;27;45466;-60
2023/11/27 10:09:34;;;;;;;;;8.75;8.00;;;;;7.67;75.08;99669.88;5097830;27;45501;-61
2023/11/27 10:12:00;;;;;;;;;7.75;5.00;;;;;7.67;75.04;99669.03;5099415;27;46239;-61
2023/11/27 10:14:29;;;;;;;;;11.75;7.00;;;;;7.69;75.45;99669.81;5080143;27;45328;-60
2023/11/27 10:16:59;;;;;;;;;9.25;5.50;;;;;7.70;75.17;99674.97;5100210;27;45244;-61
2023/11/27 10:19:25;;;;;;;;;6.75;5.00;;;;;7.71;75.30;99666.25;5067627;27;45561;-61
2023/11/27 10:21:51;;;;;;;;;8.25;5.00;;;;;7.70;75.46;99664.56;5092744;27;46919;-60
2023/11/27 10:24:16;;;;;;;;;5.75;5.50;;;;;7.70;75.48;99659.34;5087104;27;58281;-61
2023/11/27 10:26:43;;;;;;;;;9.25;6.00;;;;;7.71;75.76;99655.00;5100504;27;46022;-61
2023/11/27 10:29:09;;;;;;;;;3.25;3.25;;;;;7.72;77.46;99646.25;5095158;27;45208;-60
2023/11/27 10:31:36;;;;;;;;;8.50;7.75;;;;;7.71;77.86;99640.22;5056543;27;47729;-60
2023/11/27 10:34:03;;;;;;;;;9.75;4.00;;;;;7.71;76.45;99631.56;5085796;27;45972;-61
2023/11/27 10:36:28;;;;;;;;;4.75;4.50;;;;;7.71;76.05;99621.97;5080749;27;45281;-61
2023/11/27 10:39:07;;;;;;;;;8.25;4.50;;;;;7.73;75.98;99617.56;5079804;27;71251;-61
2023/11/27 10:41:33;;;;;;;;;8.50;5.50;;;;;7.73;76.25;99609.75;5086934;27;46220;-61
2023/11/27 10:44:08;;;;;;;;;7.25;6.50;;;;;7.75;76.12;99600.13;5062489;28;48015;-61
2023/11/27 10:46:35;;;;;;;;;4.75;4.00;;;;;7.77;76.25;99602.69;5063361;27;45468;-61
2023/11/27 10:49:00;;;;;;;;;8.25;8.00;;;;;7.79;76.78;99593.94;5082075;27;45487;-61
2023/11/27 10:51:31;;;;;;;;;9.00;7.00;;;;;7.80;76.36;99585.19;5068778;27;48207;-61
2023/11/27 10:53:59;;;;;;;;;9.75;8.75;;;;;7.82;76.41;99579.09;5081791;27;45331;-61
2023/11/27 10:56:27;;;;;;;;;10.00;7.25;;;;;7.85;76.53;99572.03;5069640;27;45300;-60
2023/11/27 10:59:05;;;;;;;;;5.75;5.75;;;;;7.86;76.56;99565.94;5064174;27;45273;-60
2023/11/27 11:01:35;;;;;;;;;8.00;3.75;;;;;7.88;76.48;99552.84;5080463;27;48649;-61
2023/11/27 11:04:09;;;;;;;;;8.75;5.00;;;;;7.88;76.53;99551.09;5090907;27;45842;-61
2023/11/27 11:06:37;;;;;;;;;11.75;7.00;;;;;7.89;76.94;99550.19;5069701;27;45313;-61
2023/11/27 11:09:07;;;;;;;;;8.25;6.25;;;;;7.90;77.22;99543.25;5092700;27;45531;-60
2023/11/27 11:11:32;;;;;;;;;8.00;6.75;;;;;7.92;77.10;99537.06;5094279;27;46078;-60
2023/11/27 11:13:58;;;;;;;;;8.00;5.00;;;;;7.98;76.74;99528.16;5093958;27;45225;-61
2023/11/27 11:16:36;;;;;;;;;8.25;5.25;;;;;7.99;77.21;99535.94;5076422;27;67608;-60
2023/11/27 11:19:10;;;;;;;;;10.50;6.00;;;;;8.02;76.89;99521.97;5103095;27;45308;-60
2023/11/27 11:21:48;;;;;;;;;5.50;5.50;;;;;8.01;77.05;99512.44;5102819;27;46073;-60
2023/11/27 11:24:29;;;;;;;;;8.25;8.25;;;;;8.05;77.00;99515.78;5071868;27;46039;-60
2023/11/27 11:27:19;;;;;;;;;9.75;4.00;;;;;8.08;77.01;99498.28;5098581;27;45247;-61
2023/11/27 11:29:45;;;;;;;;;13.00;8.00;;;;;8.12;77.10;99497.25;5094128;27;45352;-61